createdAt,value
2018-09-13T00:00:09.529Z,86
2018-09-13T00:01:25.800Z,87
2018-09-13T00:02:10.759Z,87
2018-09-13T00:03:11.597Z,87
2018-09-13T00:04:09.528Z,87
2018-09-13T00:05:09.543Z,87
2018-09-13T00:06:09.544Z,88
2018-09-13T00:08:09.673Z,88
2018-09-13T00:09:09.508Z,88
2018-09-13T00:10:09.495Z,88
2018-09-13T00:11:09.525Z,89
2018-09-13T00:12:11.165Z,89
2018-09-13T00:13:09.538Z,89
2018-09-13T00:14:09.548Z,89
2018-09-13T00:15:09.549Z,89
2018-09-13T00:16:09.542Z,90
2018-09-13T00:17:09.600Z,90
2018-09-13T00:18:09.567Z,90
2018-09-13T00:19:10.010Z,90
2018-09-13T00:20:10.318Z,90
2018-09-13T00:21:09.608Z,90
2018-09-13T00:22:10.132Z,90
2018-09-13T00:23:10.234Z,90
2018-09-13T00:24:09.575Z,91
2018-09-13T00:25:09.586Z,91
2018-09-13T00:26:09.667Z,91
2018-09-13T00:27:09.633Z,91
2018-09-13T00:28:09.544Z,91
2018-09-13T00:29:09.673Z,91
2018-09-13T00:30:09.572Z,91
2018-09-13T00:31:09.885Z,91
2018-09-13T00:32:09.618Z,91
2018-09-13T00:33:09.952Z,91
2018-09-13T00:34:15.737Z,91
2018-09-13T00:35:14.450Z,91
2018-09-13T00:36:12.923Z,91
2018-09-13T00:37:10.615Z,91
2018-09-13T00:38:12.866Z,91
2018-09-13T00:39:18.345Z,91
2018-09-13T00:40:18.809Z,91
2018-09-13T00:41:26.622Z,91
2018-09-13T00:42:19.455Z,91
2018-09-13T00:43:18.019Z,91
2018-09-13T00:46:08.320Z,92
2018-09-13T00:46:28.613Z,92
2018-09-13T00:47:23.252Z,92
2018-09-13T00:48:30.563Z,92
2018-09-13T00:50:31.408Z,92
2018-09-13T00:51:31.170Z,92
2018-09-13T00:52:31.165Z,91
2018-09-13T00:53:31.661Z,91
2018-09-13T00:54:31.907Z,91
2018-09-13T00:55:30.960Z,91
2018-09-13T00:56:31.226Z,91
2018-09-13T00:57:31.165Z,92
2018-09-13T00:58:32.065Z,92
2018-09-13T00:59:31.182Z,92
2018-09-13T01:00:33.283Z,92
2018-09-13T01:01:32.799Z,92
2018-09-13T01:02:31.974Z,92
2018-09-13T01:03:31.865Z,92
2018-09-13T01:04:31.733Z,92
2018-09-13T01:05:31.272Z,92
2018-09-13T01:06:32.519Z,92
2018-09-13T01:07:30.997Z,92
2018-09-13T01:08:31.127Z,92
2018-09-13T01:10:30.908Z,93
2018-09-13T01:11:30.941Z,93
2018-09-13T01:12:30.980Z,93
2018-09-13T01:13:31.095Z,93
2018-09-13T01:14:31.055Z,93
2018-09-13T01:15:30.979Z,93
2018-09-13T01:16:31.435Z,93
2018-09-13T01:17:31.191Z,93
2018-09-13T01:18:31.208Z,93
2018-09-13T01:19:31.173Z,93
2018-09-13T01:20:49.787Z,93
2018-09-13T01:21:32.331Z,93
2018-09-13T01:22:32.243Z,93
2018-09-13T01:23:33.973Z,93
2018-09-13T01:24:33.711Z,93
2018-09-13T01:25:33.093Z,93
2018-09-13T01:26:32.575Z,93
2018-09-13T01:27:31.748Z,93
2018-09-13T01:28:33.220Z,93
2018-09-13T01:29:45.055Z,93
2018-09-13T01:30:39.537Z,93
2018-09-13T01:31:35.319Z,93
2018-09-13T01:32:36.073Z,94
2018-09-13T01:33:32.491Z,94
2018-09-13T01:35:35.751Z,94
2018-09-13T01:36:35.224Z,94
2018-09-13T01:37:34.271Z,94
2018-09-13T01:38:33.167Z,94
2018-09-13T01:39:34.744Z,94
2018-09-13T01:40:59.378Z,94
2018-09-13T01:41:39.688Z,94
2018-09-13T01:42:35.048Z,94
2018-09-13T01:43:35.510Z,94
2018-09-13T01:45:39.830Z,94
2018-09-13T01:46:36.324Z,94
2018-09-13T01:47:40.153Z,94
2018-09-13T01:49:32.279Z,93
2018-09-13T01:51:36.873Z,94
2018-09-13T01:52:47.476Z,94
2018-09-13T01:53:31.189Z,94
2018-09-13T01:55:42.627Z,95
2018-09-13T01:56:59.587Z,95
2018-09-13T01:57:32.698Z,95
2018-09-13T01:59:39.254Z,95
2018-09-13T02:00:32.421Z,95
2018-09-13T02:01:34.250Z,95
2018-09-13T02:02:31.040Z,95
2018-09-13T02:03:30.983Z,95
2018-09-13T02:04:31.048Z,95
2018-09-13T02:05:31.135Z,95
2018-09-13T02:06:31.078Z,95
2018-09-13T02:07:31.166Z,95
2018-09-13T02:08:31.025Z,95
2018-09-13T02:09:32.297Z,95
2018-09-13T02:10:31.565Z,95
2018-09-13T02:11:33.877Z,95
2018-09-13T02:12:31.919Z,95
2018-09-13T02:13:31.403Z,95
2018-09-13T02:14:37.032Z,95
2018-09-13T02:15:47.371Z,95
2018-09-13T02:16:43.358Z,95
2018-09-13T02:17:40.443Z,95
2018-09-13T02:18:37.450Z,95
2018-09-13T02:19:33.822Z,95
2018-09-13T02:20:34.445Z,95
2018-09-13T02:21:32.115Z,95
2018-09-13T02:22:33.962Z,95
2018-09-13T02:24:37.063Z,95
2018-09-13T02:25:34.549Z,95
2018-09-13T02:26:37.771Z,95
2018-09-13T02:27:38.754Z,95
2018-09-13T02:28:40.597Z,95
2018-09-13T02:29:42.227Z,95
2018-09-13T02:30:47.084Z,95
2018-09-13T02:31:43.024Z,95
2018-09-13T02:32:35.860Z,95
2018-09-13T02:33:42.603Z,95
2018-09-13T02:35:31.592Z,95
2018-09-13T02:36:32.779Z,95
2018-09-13T02:37:32.406Z,95
2018-09-13T02:48:40.949Z,95
2018-09-13T02:49:39.985Z,95
2018-09-13T02:50:40.090Z,95
2018-09-13T02:51:40.114Z,95
2018-09-13T02:52:40.131Z,95
2018-09-13T02:53:42.046Z,95
2018-09-13T02:54:40.207Z,95
2018-09-13T02:55:40.135Z,95
2018-09-13T02:57:41.158Z,95
2018-09-13T02:58:41.922Z,95
2018-09-13T02:59:41.246Z,95
2018-09-13T03:00:40.450Z,95
2018-09-13T03:01:40.991Z,95
2018-09-13T03:02:41.707Z,95
2018-09-13T03:04:40.672Z,95
2018-09-13T03:06:42.044Z,95
2018-09-13T03:07:41.045Z,95
2018-09-13T03:09:33.155Z,95
2018-09-13T03:09:41.937Z,95
2018-09-13T03:10:43.472Z,95
2018-09-13T03:11:43.617Z,95
2018-09-13T03:12:43.186Z,95
2018-09-13T03:13:41.848Z,95
2018-09-13T03:14:41.700Z,95
2018-09-13T03:15:41.665Z,95
2018-09-13T03:17:41.671Z,96
2018-09-13T03:18:41.977Z,96
2018-09-13T03:19:42.893Z,96
2018-09-13T03:20:42.465Z,96
2018-09-13T03:21:41.923Z,95
2018-09-13T03:22:44.154Z,95
2018-09-13T03:23:45.723Z,95
2018-09-13T03:24:47.795Z,96
2018-09-13T03:25:50.578Z,96
2018-09-13T03:26:43.368Z,96
2018-09-13T03:27:47.523Z,96
2018-09-13T03:28:43.207Z,96
2018-09-13T03:29:44.883Z,96
2018-09-13T03:30:41.692Z,96
2018-09-13T03:31:41.858Z,96
2018-09-13T03:32:42.620Z,96
2018-09-13T03:33:41.657Z,96
2018-09-13T03:34:42.026Z,95
2018-09-13T03:35:41.745Z,95
2018-09-13T03:36:42.997Z,95
2018-09-13T03:37:42.527Z,95
2018-09-13T03:38:41.727Z,95
2018-09-13T03:39:41.763Z,96
2018-09-13T03:40:41.691Z,96
2018-09-13T03:41:41.815Z,96
2018-09-13T03:42:41.784Z,96
2018-09-13T03:43:42.102Z,96
2018-09-13T03:44:41.980Z,96
2018-09-13T03:45:41.987Z,96
2018-09-13T03:46:41.729Z,96
2018-09-13T03:47:41.757Z,96
2018-09-13T03:48:42.088Z,96
2018-09-13T03:49:44.112Z,96
2018-09-13T03:50:42.721Z,96
2018-09-13T03:51:41.746Z,96
2018-09-13T03:52:42.727Z,96
2018-09-13T03:54:58.312Z,96
2018-09-13T03:56:43.145Z,96
2018-09-13T03:57:41.846Z,96
2018-09-13T03:58:43.351Z,96
2018-09-13T03:59:43.453Z,96
2018-09-13T04:00:42.735Z,96
2018-09-13T04:01:45.648Z,96
2018-09-13T04:02:49.585Z,96
2018-09-13T04:03:41.889Z,96
2018-09-13T04:04:48.702Z,96
2018-09-13T04:05:41.851Z,96
2018-09-13T04:06:45.865Z,96
2018-09-13T04:07:42.554Z,96
2018-09-13T04:09:42.254Z,96
2018-09-13T04:10:42.176Z,96
2018-09-13T04:11:43.256Z,96
2018-09-13T04:12:44.303Z,96
2018-09-13T04:13:44.332Z,96
2018-09-13T04:14:44.082Z,96
2018-09-13T04:15:42.231Z,96
2018-09-13T04:16:43.535Z,96
2018-09-13T04:17:43.295Z,96
2018-09-13T04:18:43.877Z,96
2018-09-13T04:19:46.173Z,96
2018-09-13T04:20:43.916Z,96
2018-09-13T04:21:44.726Z,96
2018-09-13T04:22:43.619Z,96
2018-09-13T04:23:44.391Z,96
2018-09-13T04:24:48.873Z,96
2018-09-13T04:25:44.368Z,96
2018-09-13T04:27:46.572Z,96
2018-09-13T04:29:41.962Z,96
2018-09-13T04:30:44.595Z,96
2018-09-13T04:31:42.489Z,96
2018-09-13T04:32:43.957Z,96
2018-09-13T04:33:47.170Z,96
2018-09-13T04:34:43.498Z,96
2018-09-13T04:35:42.404Z,96
2018-09-13T04:36:42.554Z,96
2018-09-13T04:38:12.434Z,96
2018-09-13T04:38:46.862Z,96
2018-09-13T04:39:42.695Z,96
2018-09-13T04:40:42.429Z,96
2018-09-13T04:41:42.896Z,96
2018-09-13T04:42:41.931Z,96
2018-09-13T04:43:42.318Z,96
2018-09-13T04:44:41.838Z,96
2018-09-13T04:45:41.938Z,96
2018-09-13T04:46:42.092Z,96
2018-09-13T04:47:43.045Z,96
2018-09-13T04:48:41.847Z,96
2018-09-13T04:49:41.934Z,96
2018-09-13T04:50:41.972Z,96
2018-09-13T04:51:42.748Z,96
2018-09-13T04:52:42.047Z,96
2018-09-13T04:53:41.880Z,96
2018-09-13T04:54:42.619Z,96
2018-09-13T04:55:41.900Z,96
2018-09-13T04:56:44.780Z,96
2018-09-13T04:57:43.320Z,96
2018-09-13T04:58:49.398Z,96
2018-09-13T05:00:44.687Z,96
2018-09-13T05:01:45.248Z,96
2018-09-13T05:03:42.202Z,96
2018-09-13T05:04:49.875Z,96
2018-09-13T05:05:42.739Z,96
2018-09-13T05:06:54.165Z,96
2018-09-13T05:07:53.066Z,96
2018-09-13T05:09:56.199Z,96
2018-09-13T05:11:01.047Z,96
2018-09-13T05:12:44.840Z,96
2018-09-13T05:13:49.296Z,96
2018-09-13T05:15:47.858Z,96
2018-09-13T05:16:55.563Z,96
2018-09-13T05:18:42.270Z,96
2018-09-13T05:20:52.653Z,96
2018-09-13T05:21:48.905Z,96
2018-09-13T05:22:43.314Z,96
2018-09-13T05:23:44.202Z,96
2018-09-13T05:24:45.443Z,96
2018-09-13T05:25:45.091Z,96
2018-09-13T05:26:44.240Z,96
2018-09-13T05:27:45.470Z,96
2018-09-13T05:28:45.878Z,96
2018-09-13T05:31:47.903Z,96
2018-09-13T05:32:43.992Z,96
2018-09-13T05:33:42.129Z,96
2018-09-13T05:36:51.974Z,96
2018-09-13T05:37:53.391Z,97
2018-09-13T05:38:52.163Z,97
2018-09-13T05:39:52.151Z,97
2018-09-13T05:40:53.873Z,97
2018-09-13T05:41:55.247Z,96
2018-09-13T05:42:52.085Z,96
2018-09-13T05:43:52.346Z,96
2018-09-13T05:44:52.100Z,96
2018-09-13T05:45:52.779Z,96
2018-09-13T05:48:05.299Z,96
2018-09-13T05:49:07.593Z,96
2018-09-13T05:50:07.422Z,96
2018-09-13T05:51:06.534Z,96
2018-09-13T05:52:05.075Z,96
2018-09-13T05:53:05.446Z,96
2018-09-13T05:54:07.369Z,96
2018-09-13T05:56:06.907Z,96
2018-09-13T05:57:05.751Z,96
2018-09-13T05:58:05.913Z,96
2018-09-13T05:59:07.086Z,96
2018-09-13T06:00:07.720Z,96
2018-09-13T06:01:08.702Z,96
2018-09-13T06:02:08.263Z,96
2018-09-13T06:03:13.790Z,96
2018-09-13T06:04:25.454Z,96
2018-09-13T06:05:14.380Z,96
2018-09-13T06:06:05.835Z,96
2018-09-13T06:08:09.525Z,96
2018-09-13T06:11:08.175Z,96
2018-09-13T06:12:05.207Z,96
2018-09-13T06:13:07.259Z,96
2018-09-13T06:14:17.769Z,96
2018-09-13T06:15:07.334Z,96
2018-09-13T06:16:05.908Z,96
2018-09-13T06:17:06.319Z,96
2018-09-13T06:18:05.803Z,96
2018-09-13T06:19:06.662Z,96
2018-09-13T06:20:06.411Z,96
2018-09-13T06:21:05.343Z,96
2018-09-13T06:22:05.229Z,96
2018-09-13T06:23:09.767Z,96
2018-09-13T06:24:05.882Z,96
2018-09-13T06:25:06.479Z,96
2018-09-13T06:26:05.845Z,96
2018-09-13T06:32:15.284Z,96
2018-09-13T06:33:14.988Z,96
2018-09-13T06:34:17.690Z,96
2018-09-13T06:35:17.431Z,96
2018-09-13T06:36:15.856Z,96
2018-09-13T06:37:15.651Z,96
2018-09-13T06:38:16.952Z,96
2018-09-13T06:39:15.036Z,96
2018-09-13T06:40:16.254Z,96
2018-09-13T06:41:15.069Z,96
2018-09-13T06:42:15.672Z,96
2018-09-13T06:43:16.430Z,96
2018-09-13T06:44:14.978Z,96
2018-09-13T06:45:15.136Z,96
2018-09-13T06:46:15.800Z,96
2018-09-13T06:47:15.745Z,96
2018-09-13T06:50:20.808Z,96
2018-09-13T06:51:21.423Z,96
2018-09-13T06:52:20.709Z,96
2018-09-13T06:53:21.781Z,96
2018-09-13T06:54:21.379Z,96
2018-09-13T06:55:20.754Z,96
2018-09-13T06:56:22.011Z,96
2018-09-13T06:57:20.844Z,96
2018-09-13T06:58:21.348Z,96
2018-09-13T06:59:21.021Z,96
2018-09-13T07:00:22.287Z,96
2018-09-13T07:01:21.053Z,96
2018-09-13T07:02:20.871Z,96
2018-09-13T07:04:20.837Z,95
2018-09-13T07:05:20.802Z,95
2018-09-13T07:06:21.293Z,95
2018-09-13T07:07:22.973Z,95
2018-09-13T07:08:36.860Z,95
2018-09-13T07:09:20.886Z,95
2018-09-13T07:10:20.804Z,95
2018-09-13T07:11:22.084Z,95
2018-09-13T07:12:20.893Z,95
2018-09-13T07:13:24.842Z,95
2018-09-13T07:14:21.114Z,95
2018-09-13T07:15:20.832Z,95
2018-09-13T07:16:20.845Z,95
2018-09-13T07:17:22.620Z,95
2018-09-13T07:18:20.707Z,95
2018-09-13T07:19:21.486Z,95
2018-09-13T07:20:20.768Z,95
2018-09-13T07:21:22.608Z,95
2018-09-13T07:22:23.470Z,95
2018-09-13T07:23:20.868Z,95
2018-09-13T07:24:20.850Z,95
2018-09-13T07:25:21.492Z,95
2018-09-13T07:26:23.456Z,95
2018-09-13T07:27:21.724Z,95
2018-09-13T07:29:25.750Z,95
2018-09-13T07:30:21.772Z,95
2018-09-13T07:31:20.773Z,95
2018-09-13T07:32:21.971Z,95
2018-09-13T07:33:20.917Z,95
2018-09-13T07:34:22.011Z,95
2018-09-13T07:36:20.797Z,95
2018-09-13T07:37:21.841Z,95
2018-09-13T07:38:20.803Z,95
2018-09-13T07:39:21.443Z,95
2018-09-13T07:40:20.784Z,95
2018-09-13T07:41:21.616Z,95
2018-09-13T07:44:22.496Z,95
2018-09-13T07:45:22.354Z,95
2018-09-13T07:46:22.322Z,95
2018-09-13T07:47:21.542Z,95
2018-09-13T07:48:20.799Z,95
2018-09-13T07:49:21.520Z,95
2018-09-13T07:51:21.822Z,95
2018-09-13T07:52:21.873Z,95
2018-09-13T07:54:23.457Z,95
2018-09-13T07:55:21.549Z,95
2018-09-13T07:56:21.512Z,95
2018-09-13T07:57:21.168Z,95
2018-09-13T07:58:21.132Z,95
2018-09-13T07:59:20.800Z,95
2018-09-13T08:01:21.998Z,95
2018-09-13T08:03:20.911Z,95
2018-09-13T08:04:21.088Z,95
2018-09-13T08:05:22.224Z,95
2018-09-13T08:06:22.941Z,95
2018-09-13T08:07:21.191Z,95
2018-09-13T08:08:23.929Z,95
2018-09-13T08:09:22.314Z,95
2018-09-13T08:10:23.130Z,95
2018-09-13T08:11:21.524Z,95
2018-09-13T08:12:20.929Z,95
2018-09-13T08:13:30.630Z,95
2018-09-13T08:14:24.059Z,95
2018-09-13T08:15:21.016Z,95
2018-09-13T08:16:38.398Z,95
2018-09-13T08:18:21.811Z,94
2018-09-13T08:19:22.394Z,94
2018-09-13T08:20:21.127Z,94
2018-09-13T08:21:21.261Z,94
2018-09-13T08:22:21.173Z,94
2018-09-13T08:23:21.388Z,94
2018-09-13T08:24:21.247Z,93
2018-09-13T08:25:20.898Z,93
2018-09-13T08:26:21.248Z,93
2018-09-13T08:27:22.845Z,93
2018-09-13T08:28:20.863Z,93
2018-09-13T08:29:21.021Z,93
2018-09-13T08:32:21.498Z,93
2018-09-13T08:33:21.502Z,93
2018-09-13T08:34:20.921Z,93
2018-09-13T08:38:40.334Z,93
2018-09-13T08:38:54.532Z,93
2018-09-13T08:39:55.512Z,92
2018-09-13T08:42:57.149Z,92
2018-09-13T08:43:57.492Z,92
2018-09-13T08:45:55.691Z,91
2018-09-13T08:46:56.601Z,91
2018-09-13T08:47:57.227Z,91
2018-09-13T08:48:57.373Z,91
2018-09-13T08:50:55.278Z,91
2018-09-13T08:51:56.395Z,91
2018-09-13T08:52:57.087Z,90
2018-09-13T08:53:58.011Z,90
2018-09-13T08:54:56.881Z,90
2018-09-13T08:55:57.234Z,90
2018-09-13T08:56:57.220Z,90
2018-09-13T08:57:56.213Z,89
2018-09-13T08:58:56.515Z,89
2018-09-13T08:59:55.338Z,89
2018-09-13T09:00:56.913Z,89
2018-09-13T09:01:56.232Z,89
2018-09-13T09:02:57.529Z,89
2018-09-13T09:03:57.549Z,89
2018-09-13T09:04:58.362Z,87
2018-09-13T09:05:55.598Z,87
2018-09-13T09:06:56.214Z,87
2018-09-13T09:07:56.236Z,86
2018-09-13T09:08:57.524Z,86
2018-09-13T09:09:56.576Z,86
2018-09-13T09:10:55.821Z,86
2018-09-13T09:11:56.662Z,86
2018-09-13T09:12:57.618Z,86
2018-09-13T09:14:56.149Z,86
2018-09-13T09:15:58.275Z,86
2018-09-13T09:16:55.209Z,86
2018-09-13T09:17:57.234Z,86
2018-09-13T09:18:57.127Z,86
2018-09-13T09:20:57.800Z,85
2018-09-13T09:22:57.605Z,85
2018-09-13T09:23:55.964Z,85
2018-09-13T09:25:55.498Z,85
2018-09-13T09:26:57.381Z,85
2018-09-13T09:27:59.343Z,86
2018-09-13T09:28:56.865Z,86
2018-09-13T09:29:55.952Z,86
2018-09-13T09:30:55.713Z,86
2018-09-13T09:31:56.489Z,86
2018-09-13T09:32:55.407Z,86
2018-09-13T09:33:56.124Z,86
2018-09-13T09:34:56.658Z,86
2018-09-13T09:35:57.108Z,86
2018-09-13T09:36:58.336Z,86
2018-09-13T09:37:57.182Z,85
2018-09-13T09:38:57.733Z,85
2018-09-13T09:39:58.010Z,85
2018-09-13T09:40:57.500Z,85
2018-09-13T09:41:56.980Z,85
2018-09-13T09:42:58.127Z,85
2018-09-13T09:43:57.487Z,85
2018-09-13T09:45:56.308Z,85
2018-09-13T09:48:00.546Z,85
2018-09-13T09:48:59.882Z,85
2018-09-13T09:49:57.460Z,85
2018-09-13T09:50:58.039Z,84
2018-09-13T09:51:59.533Z,84
2018-09-13T09:53:57.503Z,84
2018-09-13T09:54:58.257Z,84
2018-09-13T09:55:58.086Z,83
2018-09-13T09:56:56.780Z,83
2018-09-13T09:57:57.112Z,83
2018-09-13T09:58:58.541Z,83
2018-09-13T09:59:58.734Z,83
2018-09-13T10:00:58.335Z,84
2018-09-13T10:01:55.341Z,84
2018-09-13T10:02:55.465Z,84
2018-09-13T10:03:56.194Z,83
2018-09-13T10:04:57.287Z,83
2018-09-13T10:06:57.985Z,83
2018-09-13T10:08:01.140Z,83
2018-09-13T10:08:56.937Z,82
2018-09-13T10:09:57.349Z,82
2018-09-13T10:10:55.360Z,80
2018-09-13T10:12:57.225Z,80
2018-09-13T10:13:55.338Z,80
2018-09-13T10:14:55.616Z,80
2018-09-13T10:15:57.996Z,80
2018-09-13T10:16:55.412Z,80
2018-09-13T10:17:57.547Z,80
2018-09-13T10:18:55.678Z,80
2018-09-13T10:19:56.075Z,80
2018-09-13T10:20:55.320Z,80
2018-09-13T10:21:55.460Z,80
2018-09-13T10:22:55.536Z,80
2018-09-13T10:23:57.529Z,80
2018-09-13T10:24:55.456Z,80
2018-09-13T10:25:55.404Z,80
2018-09-13T10:26:56.847Z,80
2018-09-13T10:29:56.875Z,79
2018-09-13T10:31:55.652Z,80
2018-09-13T10:33:57.577Z,80
2018-09-13T10:35:55.774Z,80
2018-09-13T10:37:07.903Z,80
2018-09-13T10:37:56.065Z,80
2018-09-13T10:38:55.491Z,78
2018-09-13T10:39:58.303Z,78
2018-09-13T10:40:56.074Z,78
2018-09-13T10:41:57.362Z,79
2018-09-13T10:42:55.597Z,79
2018-09-13T10:43:55.457Z,78
2018-09-13T10:44:57.871Z,78
2018-09-13T10:45:56.547Z,78
2018-09-13T10:46:55.946Z,78
2018-09-13T10:47:56.928Z,78
2018-09-13T10:48:55.523Z,78
2018-09-13T10:50:55.347Z,77
2018-09-13T10:52:55.375Z,77
2018-09-13T10:53:55.400Z,77
2018-09-13T10:54:56.460Z,77
2018-09-13T10:56:07.065Z,77
2018-09-13T10:57:57.924Z,77
2018-09-13T10:58:56.330Z,77
2018-09-13T10:59:56.097Z,76
2018-09-13T11:00:58.304Z,76
2018-09-13T11:02:55.437Z,75
2018-09-13T11:03:59.800Z,75
2018-09-13T11:05:06.377Z,75
2018-09-13T11:05:55.910Z,75
2018-09-13T11:07:01.348Z,73
2018-09-13T11:07:55.684Z,73
2018-09-13T11:09:00.038Z,73
2018-09-13T11:10:00.229Z,72
2018-09-13T11:12:00.386Z,72
2018-09-13T11:13:59.438Z,72
2018-09-13T11:15:09.328Z,73
2018-09-13T11:15:58.842Z,73
2018-09-13T11:16:58.825Z,73
2018-09-13T11:17:57.601Z,72
2018-09-13T11:19:02.610Z,72
2018-09-13T11:19:58.201Z,72
2018-09-13T11:20:59.081Z,72
2018-09-13T11:22:01.336Z,72
2018-09-13T11:23:01.122Z,72
2018-09-13T11:24:12.889Z,72
2018-09-13T11:24:57.562Z,71
2018-09-13T11:25:56.571Z,71
2018-09-13T11:26:57.789Z,71
2018-09-13T11:27:56.847Z,70
2018-09-13T11:28:57.502Z,70
2018-09-13T11:30:09.738Z,71
2018-09-13T11:30:55.671Z,71
2018-09-13T11:31:58.724Z,71
2018-09-13T11:32:59.602Z,71
2018-09-13T11:34:11.085Z,71
2018-09-13T11:34:57.709Z,70
2018-09-13T11:36:11.839Z,70
2018-09-13T11:37:12.276Z,70
2018-09-13T11:38:02.321Z,70
2018-09-13T11:38:57.867Z,70
2018-09-13T11:39:55.759Z,69
2018-09-13T11:40:57.362Z,69
2018-09-13T11:46:53.041Z,69
2018-09-13T11:47:04.119Z,69
2018-09-13T11:48:04.817Z,68
2018-09-13T11:49:04.029Z,68
2018-09-13T11:50:04.569Z,66
2018-09-13T11:51:02.799Z,66
2018-09-13T11:52:04.105Z,66
2018-09-13T11:53:05.379Z,66
2018-09-13T11:54:08.705Z,66
2018-09-13T11:55:05.400Z,66
2018-09-13T11:56:03.005Z,66
2018-09-13T11:57:05.143Z,66
2018-09-13T11:58:03.324Z,65
2018-09-13T11:59:02.672Z,65
2018-09-13T12:01:03.721Z,65
2018-09-13T12:02:05.892Z,65
2018-09-13T12:03:03.287Z,65
2018-09-13T12:04:03.889Z,65
2018-09-13T12:05:05.589Z,65
2018-09-13T12:06:05.841Z,65
2018-09-13T12:07:03.426Z,65
2018-09-13T12:10:08.082Z,65
2018-09-13T12:11:03.893Z,64
2018-09-13T12:12:05.172Z,64
2018-09-13T12:13:04.220Z,64
2018-09-13T12:14:05.440Z,64
2018-09-13T12:17:02.743Z,64
2018-09-13T12:18:03.454Z,63
2018-09-13T12:19:04.890Z,63
2018-09-13T12:20:04.138Z,63
2018-09-13T12:22:04.081Z,63
2018-09-13T12:23:04.369Z,63
2018-09-13T12:24:05.078Z,63
2018-09-13T12:25:02.768Z,63
2018-09-13T12:27:15.586Z,63
2018-09-13T12:28:16.269Z,63
2018-09-13T12:29:19.425Z,63
2018-09-13T12:30:16.653Z,63
2018-09-13T12:31:15.656Z,63
2018-09-13T12:32:16.950Z,63
2018-09-13T12:33:16.194Z,63
2018-09-13T12:34:16.376Z,63
2018-09-13T12:35:15.592Z,63
2018-09-13T12:36:15.590Z,63
2018-09-13T12:38:08.057Z,63
2018-09-13T12:38:19.937Z,63
2018-09-13T12:41:16.669Z,63
2018-09-13T12:42:16.875Z,63
2018-09-13T12:43:17.235Z,63
2018-09-13T12:44:18.207Z,63
2018-09-13T12:45:17.329Z,63
2018-09-13T12:46:17.843Z,63
2018-09-13T12:47:18.704Z,63
2018-09-13T12:48:19.054Z,63
2018-09-13T12:49:17.922Z,63
2018-09-13T12:50:16.874Z,63
2018-09-13T12:51:16.612Z,62
2018-09-13T12:52:18.031Z,62
2018-09-13T12:53:17.157Z,62
2018-09-13T12:54:17.883Z,61
2018-09-13T12:55:17.850Z,61
2018-09-13T12:57:25.324Z,63
2018-09-13T12:58:40.726Z,63
2018-09-13T12:59:40.769Z,63
2018-09-13T13:00:41.091Z,63
2018-09-13T13:01:40.802Z,62
2018-09-13T13:02:43.193Z,62
2018-09-13T13:03:41.813Z,62
2018-09-13T13:04:40.037Z,62
2018-09-13T13:05:40.121Z,62
2018-09-13T13:06:40.237Z,62
2018-09-13T13:08:53.911Z,60
2018-09-13T13:09:53.184Z,60
2018-09-13T13:10:53.292Z,60
2018-09-13T13:11:53.471Z,60
2018-09-13T13:12:53.260Z,60
2018-09-13T13:13:53.232Z,60
2018-09-13T13:14:54.020Z,60
2018-09-13T13:15:54.540Z,60
2018-09-13T13:16:54.324Z,60
2018-09-13T13:19:03.307Z,60
2018-09-13T13:19:54.085Z,60
2018-09-13T13:20:53.240Z,60
2018-09-13T13:21:53.437Z,61
2018-09-13T13:22:55.562Z,61
2018-09-13T13:23:54.572Z,61
2018-09-13T13:24:57.268Z,61
2018-09-13T13:25:53.791Z,61
2018-09-13T13:26:53.981Z,60
2018-09-13T13:27:55.154Z,60
2018-09-13T13:28:57.412Z,60
2018-09-13T13:29:53.252Z,59
2018-09-13T13:30:53.214Z,59
2018-09-13T13:31:55.169Z,59
2018-09-13T13:32:54.429Z,59
2018-09-13T13:33:54.250Z,59
2018-09-13T13:34:53.272Z,59
2018-09-13T13:35:53.128Z,59
2018-09-13T13:36:53.217Z,59
2018-09-13T13:37:53.319Z,59
2018-09-13T13:38:54.765Z,59
2018-09-13T13:39:54.044Z,58
2018-09-13T13:40:53.221Z,58
2018-09-13T13:41:53.322Z,58
2018-09-13T13:42:57.932Z,58
2018-09-13T13:44:00.800Z,58
2018-09-13T13:44:53.247Z,57
2018-09-13T13:45:54.260Z,57
2018-09-13T13:46:55.011Z,57
2018-09-13T13:47:53.923Z,57
2018-09-13T13:48:54.031Z,57
2018-09-13T13:49:54.556Z,57
2018-09-13T13:51:53.773Z,57
2018-09-13T13:53:53.126Z,57
2018-09-13T13:54:53.352Z,57
2018-09-13T13:55:53.441Z,57
2018-09-13T13:56:54.124Z,57
2018-09-13T13:57:53.191Z,57
2018-09-13T13:58:53.240Z,57
2018-09-13T13:59:54.713Z,55
2018-09-13T14:00:53.802Z,55
2018-09-13T14:01:53.214Z,55
2018-09-13T14:02:53.252Z,56
2018-09-13T14:03:53.260Z,56
2018-09-13T14:04:53.245Z,54
2018-09-13T14:05:53.285Z,54
2018-09-13T14:09:04.439Z,54
2018-09-13T14:10:04.848Z,54
2018-09-13T14:11:07.670Z,54
2018-09-13T14:13:02.247Z,54
2018-09-13T14:14:02.507Z,54
2018-09-13T14:15:04.123Z,55
2018-09-13T14:17:02.912Z,55
2018-09-13T14:18:01.346Z,56
2018-09-13T14:19:03.490Z,56
2018-09-13T14:20:01.394Z,57
2018-09-13T14:21:01.383Z,57
2018-09-13T14:22:07.777Z,57
2018-09-13T14:23:01.413Z,57
2018-09-13T14:24:01.360Z,57
2018-09-13T14:25:04.756Z,57
2018-09-13T14:26:03.730Z,56
2018-09-13T14:27:02.032Z,56
2018-09-13T14:28:01.635Z,56
2018-09-13T14:29:01.329Z,56
2018-09-13T14:30:01.380Z,56
2018-09-13T14:32:01.470Z,55
2018-09-13T14:33:01.665Z,56
2018-09-13T14:34:01.517Z,56
2018-09-13T14:35:01.636Z,56
2018-09-13T14:36:01.387Z,56
2018-09-13T14:37:01.661Z,56
2018-09-13T14:38:01.554Z,56
2018-09-13T14:39:03.665Z,56
2018-09-13T14:40:01.491Z,56
2018-09-13T14:41:01.418Z,55
2018-09-13T14:42:01.421Z,55
2018-09-13T14:43:01.459Z,55
2018-09-13T14:44:01.727Z,55
2018-09-13T14:45:02.259Z,55
2018-09-13T14:46:01.461Z,53
2018-09-13T14:47:01.645Z,53
2018-09-13T14:48:01.488Z,54
2018-09-13T15:00:02.115Z,57
2018-09-13T15:01:02.161Z,57
2018-09-13T15:02:02.232Z,57
2018-09-13T15:03:02.230Z,57
2018-09-13T15:04:02.438Z,57
2018-09-13T15:05:02.218Z,57
2018-09-13T15:06:02.203Z,57
2018-09-13T15:07:02.626Z,57
2018-09-13T15:08:02.456Z,57
2018-09-13T15:09:02.543Z,57
2018-09-13T15:10:22.369Z,57
2018-09-13T15:11:02.261Z,57
2018-09-13T15:12:02.227Z,57
2018-09-13T15:13:02.479Z,57
2018-09-13T15:14:02.263Z,58
2018-09-13T15:15:02.329Z,58
2018-09-13T15:16:02.194Z,58
2018-09-13T15:17:02.505Z,58
2018-09-13T15:18:02.295Z,58
2018-09-13T15:19:02.186Z,58
2018-09-13T15:20:04.668Z,58
2018-09-13T15:21:02.118Z,58
2018-09-13T15:22:02.802Z,58
2018-09-13T15:23:04.185Z,58
2018-09-13T15:24:03.105Z,58
2018-09-13T15:25:02.231Z,58
2018-09-13T15:26:02.553Z,58
2018-09-13T15:27:02.395Z,58
2018-09-13T15:28:02.254Z,58
2018-09-13T15:29:02.274Z,58
2018-09-13T15:30:02.547Z,58
2018-09-13T15:32:14.720Z,58
2018-09-13T15:34:14.799Z,58
2018-09-13T15:35:14.757Z,58
2018-09-13T15:36:15.045Z,59
2018-09-13T15:37:14.824Z,59
2018-09-13T15:38:16.400Z,59
2018-09-13T15:39:15.046Z,59
2018-09-13T15:40:16.773Z,59
2018-09-13T15:41:15.313Z,59
2018-09-13T15:42:15.899Z,60
2018-09-13T15:43:14.879Z,60
2018-09-13T15:44:15.182Z,61
2018-09-13T15:45:16.212Z,61
2018-09-13T15:46:14.763Z,61
2018-09-13T15:47:14.753Z,61
2018-09-13T15:48:15.162Z,61
2018-09-13T15:49:14.733Z,61
2018-09-13T15:50:15.383Z,61
2018-09-13T15:51:14.829Z,61
2018-09-13T15:52:26.149Z,62
2018-09-13T15:53:15.207Z,62
2018-09-13T15:54:15.527Z,62
2018-09-13T15:55:15.120Z,62
2018-09-13T15:56:15.082Z,62
2018-09-13T15:57:14.744Z,62
2018-09-13T15:58:14.872Z,62
2018-09-13T15:59:14.777Z,62
2018-09-13T16:00:16.253Z,62
2018-09-13T16:01:16.025Z,62
2018-09-13T16:04:24.031Z,62
2018-09-13T16:05:25.043Z,62
2018-09-13T16:07:25.460Z,63
2018-09-13T16:08:25.237Z,63
2018-09-13T16:09:25.184Z,63
2018-09-13T16:10:25.004Z,63
2018-09-13T16:11:25.816Z,63
2018-09-13T16:12:25.318Z,63
2018-09-13T16:14:25.371Z,63
2018-09-13T16:15:25.100Z,63
2018-09-13T16:16:25.155Z,63
2018-09-13T16:17:25.733Z,64
2018-09-13T16:18:25.066Z,64
2018-09-13T16:19:25.244Z,64
2018-09-13T16:20:26.186Z,64
2018-09-13T16:21:25.063Z,64
2018-09-13T16:22:25.323Z,64
2018-09-13T16:23:45.246Z,64
2018-09-13T16:24:25.702Z,64
2018-09-13T16:25:25.052Z,64
2018-09-13T16:26:25.283Z,64
2018-09-13T16:27:24.970Z,64
2018-09-13T16:28:25.265Z,64
2018-09-13T16:29:25.076Z,64
2018-09-13T16:30:25.051Z,64